createdAt,value
2023-02-12T00:01:28.796Z,66.59
2023-02-12T00:03:58.255Z,66.65
2023-02-12T00:06:26.710Z,66.64
2023-02-12T00:08:56.540Z,66.65
2023-02-12T00:11:29.612Z,66.62
2023-02-12T00:13:58.789Z,66.51
2023-02-12T00:16:29.167Z,66.57
2023-02-12T00:18:59.018Z,66.41
2023-02-12T00:21:27.895Z,66.51
2023-02-12T00:23:56.946Z,66.50
2023-02-12T00:26:25.621Z,66.51
2023-02-12T00:28:54.999Z,66.55
2023-02-12T00:31:26.768Z,66.30
2023-02-12T00:33:59.463Z,66.47
2023-02-12T00:36:30.998Z,66.22
2023-02-12T00:39:01.149Z,66.28
2023-02-12T00:41:29.347Z,66.29
2023-02-12T00:43:57.535Z,66.23
2023-02-12T00:46:25.701Z,66.23
2023-02-12T00:48:54.011Z,66.31
2023-02-12T00:51:22.563Z,66.11
2023-02-12T00:53:50.948Z,66.14
2023-02-12T00:56:18.994Z,65.96
2023-02-12T00:58:50.258Z,65.89
2023-02-12T01:01:18.572Z,65.99
2023-02-12T01:03:46.760Z,66.07
2023-02-12T01:06:15.125Z,66.05
2023-02-12T01:08:43.323Z,66.02
2023-02-12T01:11:13.845Z,65.83
2023-02-12T01:13:41.964Z,66.03
2023-02-12T01:16:16.476Z,65.94
2023-02-12T01:18:46.112Z,66.03
2023-02-12T01:21:20.468Z,65.94
2023-02-12T01:23:48.783Z,65.90
2023-02-12T01:26:19.359Z,65.90
2023-02-12T01:28:53.528Z,65.88
2023-02-12T01:31:27.068Z,65.88
2023-02-12T01:33:57.724Z,65.69
2023-02-12T01:36:29.337Z,65.80
2023-02-12T01:38:59.212Z,66.01
2023-02-12T01:41:30.864Z,65.74
2023-02-12T01:44:19.392Z,65.76
2023-02-12T01:46:50.781Z,65.77
2023-02-12T01:49:24.568Z,65.66
2023-02-12T01:51:59.323Z,65.64
2023-02-12T01:54:29.198Z,65.55
2023-02-12T01:56:57.555Z,65.58
2023-02-12T01:59:26.174Z,65.68
2023-02-12T02:01:56.133Z,65.71
2023-02-12T02:04:29.528Z,65.48
2023-02-12T02:07:06.592Z,65.47
2023-02-12T02:09:37.567Z,65.55
2023-02-12T02:12:25.353Z,65.56
2023-02-12T02:14:58.119Z,65.48
2023-02-12T02:17:37.806Z,65.60
2023-02-12T02:20:11.771Z,65.42
2023-02-12T02:23:04.224Z,65.67
2023-02-12T02:25:32.207Z,65.50
2023-02-12T02:28:28.749Z,65.66
2023-02-12T02:31:42.311Z,65.56
2023-02-12T02:34:43.749Z,65.64
2023-02-12T02:37:23.303Z,65.52
2023-02-12T02:40:09.720Z,65.50
2023-02-12T02:42:47.304Z,65.52
2023-02-12T02:45:41.578Z,65.52
2023-02-12T02:48:34.131Z,65.51
2023-02-12T02:51:09.517Z,65.55
2023-02-12T02:53:57.739Z,65.51
2023-02-12T02:56:27.903Z,65.59
2023-02-12T02:59:03.895Z,65.56
2023-02-12T03:01:43.503Z,65.27
2023-02-12T03:04:24.497Z,65.33
2023-02-12T03:06:59.492Z,65.28
2023-02-12T03:09:47.202Z,65.36
2023-02-12T03:12:38.727Z,65.22
2023-02-12T03:15:17.045Z,65.17
2023-02-12T03:17:47.969Z,65.28
2023-02-12T03:20:21.150Z,65.41
2023-02-12T03:22:54.752Z,65.41
2023-02-12T03:25:41.854Z,65.28
2023-02-12T03:28:16.542Z,65.35
2023-02-12T03:31:18.136Z,65.38
2023-02-12T03:33:48.927Z,65.30
2023-02-12T03:36:36.593Z,65.38
2023-02-12T03:39:35.490Z,65.38
2023-02-12T03:42:13.219Z,65.36
2023-02-12T03:44:48.142Z,65.36
2023-02-12T03:47:25.477Z,65.53
2023-02-12T03:50:02.766Z,65.46
2023-02-12T03:52:31.387Z,65.37
2023-02-12T03:54:59.750Z,65.36
2023-02-12T03:57:34.241Z,65.44
2023-02-12T04:00:06.648Z,65.37
2023-02-12T04:02:43.375Z,65.42
2023-02-12T04:05:28.090Z,65.43
2023-02-12T04:07:57.511Z,65.48
2023-02-12T04:10:36.073Z,65.38
2023-02-12T04:13:15.296Z,65.38
2023-02-12T04:15:49.573Z,65.34
2023-02-12T04:18:45.876Z,65.39
2023-02-12T04:21:32.249Z,65.44
2023-02-12T04:24:08.400Z,65.32
2023-02-12T04:26:39.583Z,65.40
2023-02-12T04:29:26.259Z,65.30
2023-02-12T04:32:23.537Z,65.24
2023-02-12T04:35:16.750Z,65.31
2023-02-12T04:38:02.636Z,65.24
2023-02-12T04:40:31.346Z,65.35
2023-02-12T04:42:59.595Z,65.47
2023-02-12T04:45:31.569Z,65.56
2023-02-12T04:48:00.627Z,65.57
2023-02-12T04:50:40.583Z,65.48
2023-02-12T04:53:09.989Z,65.25
2023-02-12T04:55:38.479Z,65.39
2023-02-12T04:58:07.145Z,65.35
2023-02-12T05:00:35.558Z,65.32
2023-02-12T05:03:04.144Z,65.53
2023-02-12T05:05:32.794Z,65.44
2023-02-12T05:08:01.004Z,65.53
2023-02-12T05:10:29.166Z,65.56
2023-02-12T05:12:57.218Z,65.53
2023-02-12T05:15:25.220Z,65.46
2023-02-12T05:17:53.366Z,65.55
2023-02-12T05:20:21.615Z,65.63
2023-02-12T05:22:53.106Z,65.58
2023-02-12T05:25:21.596Z,65.63
2023-02-12T05:27:49.667Z,65.52
2023-02-12T05:30:17.855Z,65.61
2023-02-12T05:32:45.935Z,65.54
2023-02-12T05:35:14.150Z,65.60
2023-02-12T05:37:42.453Z,65.55
2023-02-12T05:40:11.223Z,65.68
2023-02-12T05:42:39.404Z,65.49
2023-02-12T05:45:07.784Z,65.41
2023-02-12T05:47:35.861Z,65.60
2023-02-12T05:50:04.135Z,65.47
2023-02-12T05:52:32.171Z,65.57
2023-02-12T05:55:00.506Z,65.56
2023-02-12T05:57:28.563Z,65.54
2023-02-12T05:59:56.659Z,65.73
2023-02-12T06:02:24.813Z,65.59
2023-02-12T06:04:52.869Z,65.49
2023-02-12T06:07:21.706Z,65.57
2023-02-12T06:09:49.806Z,65.53
2023-02-12T06:12:17.971Z,65.62
2023-02-12T06:14:46.003Z,65.58
2023-02-12T06:17:14.203Z,65.45
2023-02-12T06:19:42.239Z,65.51
2023-02-12T06:22:10.268Z,65.56
2023-02-12T06:24:39.446Z,65.63
2023-02-12T06:27:07.493Z,65.66
2023-02-12T06:29:35.783Z,65.68
2023-02-12T06:32:04.274Z,65.67
2023-02-12T06:34:32.516Z,65.47
2023-02-12T06:37:00.843Z,65.52
2023-02-12T06:39:28.917Z,65.61
2023-02-12T06:41:56.952Z,65.57
2023-02-12T06:44:24.957Z,65.60
2023-02-12T06:46:53.745Z,65.47
2023-02-12T06:49:21.921Z,65.57
2023-02-12T06:51:49.946Z,65.56
2023-02-12T06:54:18.799Z,65.65
2023-02-12T06:56:46.906Z,65.65
2023-02-12T06:59:16.775Z,65.74
2023-02-12T07:01:45.088Z,65.57
2023-02-12T07:04:13.273Z,65.64
2023-02-12T07:06:41.481Z,65.58
2023-02-12T07:09:09.516Z,65.77
2023-02-12T07:11:38.614Z,65.54
2023-02-12T07:14:07.384Z,65.57
2023-02-12T07:16:35.770Z,65.62
2023-02-12T07:19:04.081Z,65.77
2023-02-12T07:21:32.312Z,65.71
2023-02-12T07:24:00.436Z,65.76
2023-02-12T07:26:28.973Z,65.83
2023-02-12T07:28:58.764Z,65.69
2023-02-12T07:31:27.086Z,65.73
2023-02-12T07:33:57.661Z,65.58
2023-02-12T07:36:28.836Z,65.63
2023-02-12T07:38:57.715Z,65.73
2023-02-12T07:41:28.560Z,65.64
2023-02-12T07:43:59.281Z,65.79
2023-02-12T07:46:30.580Z,65.68
2023-02-12T07:49:00.462Z,65.66
2023-02-12T07:51:29.026Z,65.67
2023-02-12T07:53:57.106Z,65.76
2023-02-12T07:56:31.039Z,65.75
2023-02-12T07:59:01.731Z,65.72
2023-02-12T08:01:38.919Z,65.78
2023-02-12T08:04:10.008Z,65.73
2023-02-12T08:06:41.106Z,65.63
2023-02-12T08:09:11.508Z,65.60
2023-02-12T08:11:41.743Z,65.65
2023-02-12T08:14:15.757Z,65.65
2023-02-12T08:16:45.789Z,65.63
2023-02-12T08:19:20.244Z,65.59
2023-02-12T08:21:53.750Z,65.71
2023-02-12T08:24:24.675Z,65.64
2023-02-12T08:26:53.011Z,65.65
2023-02-12T08:29:24.486Z,65.65
2023-02-12T08:31:58.108Z,65.74
2023-02-12T08:34:32.898Z,65.83
2023-02-12T08:37:04.240Z,65.79
2023-02-12T08:39:32.361Z,65.80
2023-02-12T08:42:01.728Z,65.87
2023-02-12T08:44:30.190Z,65.86
2023-02-12T08:46:58.349Z,65.91
2023-02-12T08:49:29.251Z,66.00
2023-02-12T08:51:59.417Z,65.93
2023-02-12T08:54:29.910Z,65.95
2023-02-12T08:57:00.536Z,66.08
2023-02-12T08:59:28.980Z,65.93
2023-02-12T09:01:57.372Z,66.09
2023-02-12T09:04:27.922Z,66.06
2023-02-12T09:06:56.191Z,65.97
2023-02-12T09:09:24.731Z,66.01
2023-02-12T09:11:53.038Z,65.90
2023-02-12T09:14:24.609Z,65.89
2023-02-12T09:16:54.590Z,65.91
2023-02-12T09:19:23.179Z,66.08
2023-02-12T09:21:56.435Z,66.05
2023-02-12T09:24:27.617Z,66.03
2023-02-12T09:26:56.889Z,66.05
2023-02-12T09:29:25.072Z,66.07
2023-02-12T09:31:53.437Z,66.17
2023-02-12T09:34:22.012Z,66.02
2023-02-12T09:36:50.472Z,65.95
2023-02-12T09:39:18.547Z,65.98
2023-02-12T09:42:03.200Z,66.00
2023-02-12T09:44:45.720Z,66.01
2023-02-12T09:47:24.067Z,66.07
2023-02-12T09:50:13.673Z,66.06
2023-02-12T09:52:41.809Z,65.94
2023-02-12T09:55:18.155Z,65.93
2023-02-12T09:57:46.720Z,65.92
2023-02-12T10:00:22.996Z,66.08
2023-02-12T10:02:56.328Z,66.02
2023-02-12T10:05:48.277Z,65.84
2023-02-12T10:08:27.097Z,65.87
2023-02-12T10:10:57.884Z,65.94
2023-02-12T10:13:38.194Z,65.91
2023-02-12T10:16:54.687Z,65.81
2023-02-12T10:19:41.423Z,65.88
2023-02-12T10:22:27.756Z,66.03
2023-02-12T10:25:24.216Z,65.76
2023-02-12T10:27:56.849Z,65.87
2023-02-12T10:30:38.003Z,65.84
2023-02-12T10:33:16.016Z,65.73
2023-02-12T10:35:50.372Z,65.60
2023-02-12T10:38:29.695Z,65.65
2023-02-12T10:41:02.009Z,65.62
2023-02-12T10:43:30.772Z,65.55
2023-02-12T10:45:59.084Z,65.57
2023-02-12T10:48:42.779Z,65.56
2023-02-12T10:51:41.171Z,65.70
2023-02-12T10:54:32.368Z,65.57
2023-02-12T10:57:11.722Z,65.70
2023-02-12T10:59:44.956Z,65.53
2023-02-12T11:02:23.606Z,65.39
2023-02-12T11:04:53.908Z,65.41
2023-02-12T11:07:23.334Z,65.51
2023-02-12T11:09:53.811Z,65.52
2023-02-12T11:12:48.374Z,65.52
2023-02-12T11:15:19.629Z,65.40
2023-02-12T11:18:09.062Z,65.24
2023-02-12T11:20:51.791Z,65.39
2023-02-12T11:23:27.989Z,65.22
2023-02-12T11:26:00.469Z,65.10
2023-02-12T11:28:30.258Z,65.00
2023-02-12T11:31:22.671Z,65.17
2023-02-12T11:34:12.919Z,64.90
2023-02-12T11:36:44.058Z,64.72
2023-02-12T11:39:34.941Z,64.74
2023-02-12T11:42:16.468Z,64.83
2023-02-12T11:44:59.462Z,64.61
2023-02-12T11:47:31.894Z,64.55
2023-02-12T11:50:04.289Z,64.59
2023-02-12T11:52:35.735Z,64.73
2023-02-12T11:55:18.366Z,64.64
2023-02-12T11:57:49.019Z,64.69
2023-02-12T12:00:22.709Z,64.71
2023-02-12T12:03:22.658Z,64.72
2023-02-12T12:06:00.911Z,64.84
2023-02-12T12:08:36.809Z,64.91
2023-02-12T12:11:15.028Z,64.86
2023-02-12T12:14:22.687Z,64.91
2023-02-12T12:17:15.404Z,64.87
2023-02-12T12:20:11.397Z,65.03
2023-02-12T12:22:42.559Z,64.96
2023-02-12T12:25:20.583Z,64.97
2023-02-12T12:28:03.013Z,65.17
2023-02-12T12:30:59.554Z,65.25
2023-02-12T12:33:33.827Z,65.33
2023-02-12T12:36:14.426Z,65.43
2023-02-12T12:39:02.368Z,65.50
2023-02-12T12:41:51.621Z,65.51
2023-02-12T12:44:50.601Z,65.56
2023-02-12T12:47:49.745Z,65.82
2023-02-12T12:50:55.937Z,65.70
2023-02-12T12:53:24.104Z,65.95
2023-02-12T12:56:01.487Z,65.95
2023-02-12T12:58:38.418Z,66.06
2023-02-12T13:01:23.553Z,66.13
2023-02-12T13:04:13.684Z,65.98
2023-02-12T13:06:49.360Z,66.15
2023-02-12T13:09:46.217Z,66.24
2023-02-12T13:12:43.439Z,66.21
2023-02-12T13:15:46.009Z,66.30
2023-02-12T13:18:36.347Z,66.43
2023-02-12T13:21:31.151Z,66.43
2023-02-12T13:24:14.396Z,66.59
2023-02-12T13:26:56.890Z,66.61
2023-02-12T13:29:48.589Z,66.81
2023-02-12T13:32:24.271Z,66.97
2023-02-12T13:34:54.936Z,66.94
2023-02-12T13:37:38.832Z,66.95
2023-02-12T13:40:14.538Z,66.91
2023-02-12T13:43:20.329Z,67.00
2023-02-12T13:46:01.805Z,67.14
2023-02-12T13:48:44.769Z,67.29
2023-02-12T13:51:33.793Z,67.34
2023-02-12T13:54:12.839Z,67.33
2023-02-12T13:56:45.414Z,67.64
2023-02-12T13:59:34.472Z,67.53
2023-02-12T14:02:26.067Z,67.64
2023-02-12T14:04:54.172Z,67.74
2023-02-12T14:07:23.130Z,67.76
2023-02-12T14:09:51.211Z,67.90
2023-02-12T14:12:25.217Z,67.86
2023-02-12T14:15:03.867Z,67.98
2023-02-12T14:17:31.966Z,68.25
2023-02-12T14:20:24.117Z,68.31
2023-02-12T14:22:52.566Z,68.37
2023-02-12T14:37:37.627Z,68.65
2023-02-12T14:40:34.250Z,68.74
2023-02-12T14:43:22.062Z,68.81
2023-02-12T14:45:50.543Z,68.97
2023-02-12T14:49:00.787Z,69.03
2023-02-12T14:51:54.248Z,69.06
2023-02-12T15:05:02.680Z,69.37
2023-02-12T15:07:56.355Z,69.50
2023-02-12T15:10:54.388Z,69.55
2023-02-12T15:13:22.509Z,69.53
2023-02-12T15:16:01.073Z,69.51
2023-02-12T15:18:48.807Z,69.55
2023-02-12T15:21:26.887Z,69.76
2023-02-12T15:24:02.760Z,69.79
2023-02-12T15:26:34.228Z,69.79
2023-02-12T15:29:03.271Z,69.82
2023-02-12T15:31:33.664Z,69.95
2023-02-12T15:34:04.261Z,69.97
2023-02-12T15:36:37.498Z,69.96
2023-02-12T15:39:09.152Z,70.03
2023-02-12T15:41:40.355Z,70.02
2023-02-12T15:44:19.467Z,70.09
2023-02-12T15:47:18.048Z,70.15
2023-02-12T15:49:46.437Z,70.25
2023-02-12T15:52:47.873Z,70.16
2023-02-12T15:55:19.339Z,70.16
2023-02-12T15:58:01.170Z,70.26
2023-02-12T16:00:43.490Z,70.41
2023-02-12T16:03:31.408Z,70.44
2023-02-12T16:06:02.988Z,70.47
2023-02-12T16:08:34.157Z,70.43
2023-02-12T16:11:13.871Z,70.40
2023-02-12T16:13:52.728Z,70.35
2023-02-12T16:16:29.215Z,70.72
2023-02-12T16:19:15.975Z,70.54
2023-02-12T16:21:46.131Z,70.76
2023-02-12T16:24:35.521Z,70.69
2023-02-12T16:27:20.179Z,70.77
2023-02-12T16:29:57.889Z,70.77
2023-02-12T16:32:43.892Z,70.91
2023-02-12T16:35:12.143Z,70.83
2023-02-12T16:37:49.669Z,70.80
2023-02-12T16:40:21.924Z,71.01
2023-02-12T16:42:50.005Z,71.07
2023-02-12T16:45:32.249Z,71.08
2023-02-12T16:48:16.355Z,71.07
2023-02-12T16:50:54.512Z,71.04
2023-02-12T16:53:29.937Z,71.31
2023-02-12T16:55:59.674Z,71.24
2023-02-12T16:58:28.672Z,71.26
2023-02-12T17:00:58.226Z,71.26
2023-02-12T17:03:26.509Z,71.33
2023-02-12T17:05:55.249Z,71.46
2023-02-12T17:08:24.388Z,71.54
2023-02-12T17:10:53.207Z,71.52
2023-02-12T17:13:21.353Z,71.45
2023-02-12T17:15:59.059Z,71.37
2023-02-12T17:18:28.637Z,71.45
2023-02-12T17:21:02.317Z,71.68
2023-02-12T17:23:33.502Z,71.57
2023-02-12T17:26:01.671Z,71.58
2023-02-12T17:28:29.932Z,71.65
2023-02-12T17:30:58.707Z,71.56
2023-02-12T17:33:27.832Z,71.71
2023-02-12T17:35:58.632Z,71.75
2023-02-12T17:38:26.778Z,71.67
2023-02-12T17:40:55.313Z,71.70
2023-02-12T17:43:24.218Z,71.79
2023-02-12T17:45:53.521Z,71.76
2023-02-12T17:48:23.441Z,71.88
2023-02-12T17:50:57.997Z,71.86
2023-02-12T17:53:26.310Z,71.85
2023-02-12T17:55:54.431Z,71.92
2023-02-12T17:58:22.504Z,71.99
2023-02-12T18:00:50.649Z,72.01
2023-02-12T18:03:18.844Z,72.00
2023-02-12T18:05:47.268Z,71.97
2023-02-12T18:08:15.427Z,71.86
2023-02-12T18:10:44.742Z,71.89
2023-02-12T18:13:14.138Z,71.89
2023-02-12T18:15:42.272Z,72.01
2023-02-12T18:18:10.392Z,72.00
2023-02-12T18:20:41.018Z,72.04
2023-02-12T18:23:10.532Z,72.07
2023-02-12T18:25:43.529Z,72.18
2023-02-12T18:28:12.221Z,72.10
2023-02-12T18:30:42.947Z,71.98
2023-02-12T18:33:12.784Z,72.10
2023-02-12T18:35:41.870Z,72.12
2023-02-12T18:38:10.597Z,71.93
2023-02-12T18:40:41.737Z,71.90
2023-02-12T18:43:09.814Z,72.04
2023-02-12T18:45:39.820Z,72.05
2023-02-12T18:48:09.409Z,72.14
2023-02-12T18:50:38.036Z,72.07
2023-02-12T18:53:06.355Z,72.08
2023-02-12T18:55:34.465Z,71.98
2023-02-12T18:58:02.648Z,72.10
2023-02-12T19:00:30.720Z,72.12
2023-02-12T19:02:58.862Z,72.25
2023-02-12T19:05:27.112Z,72.11
2023-02-12T19:07:55.851Z,72.11
2023-02-12T19:10:23.939Z,72.00
2023-02-12T19:12:52.348Z,72.17
2023-02-12T19:15:20.561Z,72.15
2023-02-12T19:17:48.966Z,72.03
2023-02-12T19:20:17.519Z,72.00
2023-02-12T19:22:46.519Z,72.12
2023-02-12T19:25:15.249Z,72.14
2023-02-12T19:27:43.471Z,72.08
2023-02-12T19:30:12.067Z,72.04
2023-02-12T19:32:40.215Z,71.91
2023-02-12T19:35:08.436Z,72.13
2023-02-12T19:37:36.595Z,72.12
2023-02-12T19:40:05.105Z,72.00
2023-02-12T19:42:33.876Z,71.96
2023-02-12T19:45:02.064Z,72.07
2023-02-12T19:47:30.412Z,72.00
2023-02-12T19:49:58.507Z,71.88
2023-02-12T19:52:26.600Z,71.96
2023-02-12T19:54:54.669Z,72.02
2023-02-12T19:57:22.773Z,71.92
2023-02-12T19:59:50.856Z,71.99
2023-02-12T20:02:19.142Z,72.07
2023-02-12T20:04:47.771Z,71.93
2023-02-12T20:07:15.916Z,71.77
2023-02-12T20:09:44.349Z,71.90
2023-02-12T20:12:12.758Z,72.03
2023-02-12T20:14:40.824Z,71.86
2023-02-12T20:17:09.013Z,71.96
2023-02-12T20:19:37.259Z,71.93
2023-02-12T20:22:05.516Z,71.90
2023-02-12T20:24:34.180Z,71.77
2023-02-12T20:27:03.339Z,71.71
2023-02-12T20:29:31.485Z,71.84
2023-02-12T20:31:59.668Z,71.84
2023-02-12T20:34:27.926Z,71.79
2023-02-12T20:36:56.100Z,71.69
2023-02-12T20:39:24.637Z,71.67
2023-02-12T20:41:52.730Z,71.71
2023-02-12T20:44:22.222Z,71.74
2023-02-12T20:46:56.424Z,71.64
2023-02-12T20:49:25.594Z,71.63
2023-02-12T20:51:54.365Z,71.63
2023-02-12T20:54:22.839Z,71.63
2023-02-12T20:56:51.047Z,71.57
2023-02-12T20:59:19.339Z,71.53
2023-02-12T21:01:48.117Z,71.63
2023-02-12T21:04:18.439Z,71.58
2023-02-12T21:06:48.717Z,71.51
2023-02-12T21:09:17.613Z,71.39
2023-02-12T21:11:46.051Z,71.45
2023-02-12T21:14:24.210Z,71.62
2023-02-12T21:16:54.791Z,71.57
2023-02-12T21:19:23.420Z,71.56
2023-02-12T21:21:52.062Z,71.46
2023-02-12T21:24:23.771Z,71.52
2023-02-12T21:26:54.906Z,71.42
2023-02-12T21:29:26.673Z,71.38
2023-02-12T21:31:55.711Z,71.43
2023-02-12T21:34:24.012Z,71.45
2023-02-12T21:36:55.353Z,71.36
2023-02-12T21:39:27.795Z,71.45
2023-02-12T21:42:02.982Z,71.52
2023-02-12T21:44:35.445Z,71.49
2023-02-12T21:47:04.618Z,71.49
2023-02-12T21:49:32.915Z,71.34
2023-02-12T21:52:03.657Z,71.34
2023-02-12T21:54:31.919Z,71.39
2023-02-12T21:57:00.316Z,71.38
2023-02-12T21:59:31.773Z,71.32
2023-02-12T22:02:01.870Z,71.44
2023-02-12T22:04:30.040Z,71.27
2023-02-12T22:06:59.724Z,71.23
2023-02-12T22:09:27.785Z,71.30
2023-02-12T22:11:55.937Z,71.23
2023-02-12T22:14:24.130Z,71.28
2023-02-12T22:16:52.315Z,71.46
2023-02-12T22:19:20.431Z,71.20
2023-02-12T22:21:51.573Z,71.31
2023-02-12T22:24:20.925Z,71.27
2023-02-12T22:26:49.154Z,71.35
2023-02-12T22:29:18.171Z,71.38
2023-02-12T22:31:47.418Z,71.27
2023-02-12T22:34:19.038Z,71.22
2023-02-12T22:36:47.590Z,71.23
2023-02-12T22:39:17.639Z,71.17
2023-02-12T22:41:46.490Z,71.23
2023-02-12T22:44:16.253Z,71.20
2023-02-12T22:46:45.102Z,71.21
2023-02-12T22:49:14.016Z,71.30
2023-02-12T22:51:42.556Z,71.26
2023-02-12T22:54:15.082Z,71.24
2023-02-12T22:56:44.402Z,71.07
2023-02-12T22:59:13.121Z,71.00
2023-02-12T23:01:41.920Z,71.19
2023-02-12T23:04:18.215Z,71.09
2023-02-12T23:06:47.019Z,71.13
2023-02-12T23:09:18.999Z,71.05
2023-02-12T23:11:48.132Z,71.10
2023-02-12T23:14:16.481Z,71.09
2023-02-12T23:16:45.021Z,71.07
2023-02-12T23:19:13.722Z,71.09
2023-02-12T23:21:42.123Z,70.99
2023-02-12T23:24:14.551Z,70.96
2023-02-12T23:26:43.070Z,70.95
2023-02-12T23:29:11.386Z,71.04
2023-02-12T23:31:39.869Z,70.92
2023-02-12T23:34:08.208Z,70.94
2023-02-12T23:36:36.423Z,70.95
2023-02-12T23:39:06.148Z,70.97
2023-02-12T23:41:34.477Z,71.04
2023-02-12T23:44:03.090Z,70.86
2023-02-12T23:46:31.821Z,70.89
2023-02-12T23:49:00.015Z,70.98
2023-02-12T23:51:28.192Z,70.85
2023-02-12T23:53:56.435Z,70.85
2023-02-12T23:56:25.188Z,70.80
2023-02-12T23:58:57.411Z,70.82
